logo
Rechercher aéroport 
image banner adimage banner adimage banner ad
image banner ad

YCAVE - Caveside

Situé à Caveside, Australia

ICAO - , IATA -

Données fournies par Airmate  

Information générale

Coordonnées: S41°36'55" E146°27'1"
Élévation : 987 feet MSL.
Variation magnétique : 14° East
Voir autres Aéroports à Tasmania

Données opérationnelles

Special qualification required
Heure actuelle UTC:
Heure actuelle locale:
Météo à : YMLT - Launceston ( 64 km )
TAF: TAF YMLT 241706Z 2418/2518 VRB03KT 9999 MIFG SCT020 SCT035 FM242300 VRB03KT 9999 NSW SCT020 SCT035 FM250100 35010KT 9999 -SHRA SCT025 SCT035 INTER 2514/2518 34015G25KT 5000 SHRA SCT015 PROB30 2418/2423 0500 FG BKN001
Voir NOTAMs / SUP AIP / TFR affectant cet aéroport [VIEW]
Fréquences de communication: [VIEW]

Pistes:

Identifiant RWYQFULongueur (ft)Largeur (ft)SurfaceLDA (ft)
35152469GRAS
17187°152469GRAS

Coordonnées de l'aéroport

Adresse: Caveside Australia

Vue satellite de YCAVE